sensor_id;sensor_type;location;lat;lon;timestamp;P1;durP1;ratioP1;P2;durP2;ratioP2
28427;SDS011;15662;49.128;8.520;2023-04-24T00:00:39;0.60;;;0.60;;
28427;SDS011;15662;49.128;8.520;2023-04-24T00:03:07;1.17;;;0.43;;
28427;SDS011;15662;49.128;8.520;2023-04-24T00:05:38;0.32;;;0.32;;
28427;SDS011;15662;49.128;8.520;2023-04-24T00:08:07;0.63;;;0.43;;
28427;SDS011;15662;49.128;8.520;2023-04-24T00:10:36;1.00;;;0.47;;
28427;SDS011;15662;49.128;8.520;2023-04-24T00:13:05;1.33;;;0.60;;
28427;SDS011;15662;49.128;8.520;2023-04-24T00:15:35;1.10;;;0.40;;
28427;SDS011;15662;49.128;8.520;2023-04-24T00:18:03;0.55;;;0.50;;
28427;SDS011;15662;49.128;8.520;2023-04-24T00:20:31;0.40;;;0.40;;
28427;SDS011;15662;49.128;8.520;2023-04-24T00:23:02;0.55;;;0.30;;
28427;SDS011;15662;49.128;8.520;2023-04-24T00:25:31;0.95;;;0.50;;
28427;SDS011;15662;49.128;8.520;2023-04-24T00:27:58;0.82;;;0.50;;
28427;SDS011;15662;49.128;8.520;2023-04-24T00:30:29;0.57;;;0.38;;
28427;SDS011;15662;49.128;8.520;2023-04-24T00:32:57;1.38;;;0.40;;
28427;SDS011;15662;49.128;8.520;2023-04-24T00:35:28;1.75;;;0.70;;
28427;SDS011;15662;49.128;8.520;2023-04-24T00:37:56;0.90;;;0.50;;
28427;SDS011;15662;49.128;8.520;2023-04-24T00:40:24;0.70;;;0.50;;
28427;SDS011;15662;49.128;8.520;2023-04-24T00:42:53;0.45;;;0.35;;
28427;SDS011;15662;49.128;8.520;2023-04-24T00:45:22;1.10;;;0.55;;
28427;SDS011;15662;49.128;8.520;2023-04-24T00:47:50;0.63;;;0.50;;
28427;SDS011;15662;49.128;8.520;2023-04-24T00:50:21;1.25;;;0.40;;
28427;SDS011;15662;49.128;8.520;2023-04-24T00:52:51;0.50;;;0.50;;
28427;SDS011;15662;49.128;8.520;2023-04-24T00:55:20;1.63;;;0.40;;
28427;SDS011;15662;49.128;8.520;2023-04-24T00:57:48;0.52;;;0.40;;
28427;SDS011;15662;49.128;8.520;2023-04-24T01:00:18;0.45;;;0.40;;
28427;SDS011;15662;49.128;8.520;2023-04-24T01:02:49;0.40;;;0.40;;
28427;SDS011;15662;49.128;8.520;2023-04-24T01:05:19;0.50;;;0.35;;
28427;SDS011;15662;49.128;8.520;2023-04-24T01:07:48;0.40;;;0.40;;
28427;SDS011;15662;49.128;8.520;2023-04-24T01:10:17;0.82;;;0.40;;
28427;SDS011;15662;49.128;8.520;2023-04-24T01:12:47;0.85;;;0.55;;
28427;SDS011;15662;49.128;8.520;2023-04-24T01:15:15;1.17;;;0.50;;
28427;SDS011;15662;49.128;8.520;2023-04-24T01:17:43;1.52;;;0.30;;
28427;SDS011;15662;49.128;8.520;2023-04-24T01:20:15;1.17;;;0.40;;
28427;SDS011;15662;49.128;8.520;2023-04-24T01:22:44;1.92;;;0.50;;
28427;SDS011;15662;49.128;8.520;2023-04-24T01:25:12;0.88;;;0.40;;
28427;SDS011;15662;49.128;8.520;2023-04-24T01:27:40;2.25;;;0.50;;
28427;SDS011;15662;49.128;8.520;2023-04-24T01:30:09;0.45;;;0.35;;
28427;SDS011;15662;49.128;8.520;2023-04-24T01:32:40;0.55;;;0.50;;
28427;SDS011;15662;49.128;8.520;2023-04-24T01:35:11;0.50;;;0.50;;
28427;SDS011;15662;49.128;8.520;2023-04-24T01:37:40;0.43;;;0.38;;
28427;SDS011;15662;49.128;8.520;2023-04-24T01:40:09;0.75;;;0.30;;
28427;SDS011;15662;49.128;8.520;2023-04-24T01:42:39;2.30;;;0.63;;
28427;SDS011;15662;49.128;8.520;2023-04-24T01:45:10;0.75;;;0.50;;
28427;SDS011;15662;49.128;8.520;2023-04-24T01:47:39;0.40;;;0.40;;
28427;SDS011;15662;49.128;8.520;2023-04-24T01:50:09;0.50;;;0.40;;
28427;SDS011;15662;49.128;8.520;2023-04-24T01:52:38;0.85;;;0.50;;
28427;SDS011;15662;49.128;8.520;2023-04-24T01:55:10;0.50;;;0.50;;
28427;SDS011;15662;49.128;8.520;2023-04-24T01:57:39;1.10;;;0.60;;
28427;SDS011;15662;49.128;8.520;2023-04-24T02:00:09;0.75;;;0.47;;
28427;SDS011;15662;49.128;8.520;2023-04-24T02:02:41;0.50;;;0.50;;
28427;SDS011;15662;49.128;8.520;2023-04-24T02:05:14;2.33;;;0.60;;
28427;SDS011;15662;49.128;8.520;2023-04-24T02:07:43;0.47;;;0.40;;
28427;SDS011;15662;49.128;8.520;2023-04-24T02:10:11;0.60;;;0.60;;
28427;SDS011;15662;49.128;8.520;2023-04-24T02:12:42;1.73;;;0.60;;
28427;SDS011;15662;49.128;8.520;2023-04-24T02:15:11;0.88;;;0.68;;
28427;SDS011;15662;49.128;8.520;2023-04-24T02:17:39;1.13;;;0.40;;
28427;SDS011;15662;49.128;8.520;2023-04-24T02:20:08;1.05;;;0.60;;
28427;SDS011;15662;49.128;8.520;2023-04-24T02:22:38;1.67;;;0.65;;
28427;SDS011;15662;49.128;8.520;2023-04-24T02:25:07;0.60;;;0.60;;
28427;SDS011;15662;49.128;8.520;2023-04-24T02:27:35;0.52;;;0.38;;
28427;SDS011;15662;49.128;8.520;2023-04-24T02:30:05;1.77;;;0.50;;
28427;SDS011;15662;49.128;8.520;2023-04-24T02:32:36;1.13;;;0.40;;
28427;SDS011;15662;49.128;8.520;2023-04-24T02:35:04;0.70;;;0.50;;
28427;SDS011;15662;49.128;8.520;2023-04-24T02:37:33;1.75;;;0.50;;
28427;SDS011;15662;49.128;8.520;2023-04-24T02:40:02;1.80;;;0.60;;
28427;SDS011;15662;49.128;8.520;2023-04-24T02:42:35;0.43;;;0.40;;
28427;SDS011;15662;49.128;8.520;2023-04-24T02:45:04;0.50;;;0.50;;
28427;SDS011;15662;49.128;8.520;2023-04-24T02:47:34;1.65;;;0.47;;
28427;SDS011;15662;49.128;8.520;2023-04-24T02:50:02;0.82;;;0.50;;
28427;SDS011;15662;49.128;8.520;2023-04-24T02:52:32;1.25;;;0.70;;
28427;SDS011;15662;49.128;8.520;2023-04-24T02:55:00;0.82;;;0.60;;
28427;SDS011;15662;49.128;8.520;2023-04-24T02:57:31;1.33;;;0.50;;
28427;SDS011;15662;49.128;8.520;2023-04-24T03:00:00;0.88;;;0.60;;
28427;SDS011;15662;49.128;8.520;2023-04-24T03:02:30;0.82;;;0.60;;
28427;SDS011;15662;49.128;8.520;2023-04-24T03:04:59;0.75;;;0.60;;
28427;SDS011;15662;49.128;8.520;2023-04-24T03:07:27;0.77;;;0.50;;
28427;SDS011;15662;49.128;8.520;2023-04-24T03:09:55;1.10;;;0.60;;
28427;SDS011;15662;49.128;8.520;2023-04-24T03:12:26;0.98;;;0.60;;
28427;SDS011;15662;49.128;8.520;2023-04-24T03:14:54;2.47;;;0.60;;
28427;SDS011;15662;49.128;8.520;2023-04-24T03:17:23;0.63;;;0.60;;
28427;SDS011;15662;49.128;8.520;2023-04-24T03:19:51;1.80;;;0.70;;
28427;SDS011;15662;49.128;8.520;2023-04-24T03:22:20;1.05;;;0.75;;
28427;SDS011;15662;49.128;8.520;2023-04-24T03:24:53;0.70;;;0.70;;
28427;SDS011;15662;49.128;8.520;2023-04-24T03:27:22;2.25;;;0.82;;
28427;SDS011;15662;49.128;8.520;2023-04-24T03:29:59;1.10;;;0.90;;
28427;SDS011;15662;49.128;8.520;2023-04-24T03:32:39;1.13;;;0.80;;
28427;SDS011;15662;49.128;8.520;2023-04-24T03:35:11;0.90;;;0.90;;
28427;SDS011;15662;49.128;8.520;2023-04-24T03:37:41;1.73;;;0.85;;
28427;SDS011;15662;49.128;8.520;2023-04-24T03:40:40;1.10;;;1.10;;
28427;SDS011;15662;49.128;8.520;2023-04-24T03:43:24;1.42;;;1.00;;
28427;SDS011;15662;49.128;8.520;2023-04-24T03:45:58;1.00;;;1.00;;
28427;SDS011;15662;49.128;8.520;2023-04-24T03:48:27;0.80;;;0.80;;
28427;SDS011;15662;49.128;8.520;2023-04-24T03:50:57;1.83;;;1.10;;
28427;SDS011;15662;49.128;8.520;2023-04-24T03:53:25;1.40;;;1.05;;
28427;SDS011;15662;49.128;8.520;2023-04-24T03:55:55;1.30;;;0.90;;
28427;SDS011;15662;49.128;8.520;2023-04-24T03:58:24;0.93;;;0.82;;
28427;SDS011;15662;49.128;8.520;2023-04-24T04:00:54;1.73;;;1.02;;
28427;SDS011;15662;49.128;8.520;2023-04-24T04:03:46;1.42;;;0.95;;
28427;SDS011;15662;49.128;8.520;2023-04-24T04:06:18;1.40;;;1.30;;
28427;SDS011;15662;49.128;8.520;2023-04-24T04:08:50;2.38;;;1.30;;
28427;SDS011;15662;49.128;8.520;2023-04-24T04:11:20;1.27;;;1.05;;
28427;SDS011;15662;49.128;8.520;2023-04-24T04:13:50;1.15;;;1.13;;
28427;SDS011;15662;49.128;8.520;2023-04-24T04:16:21;3.08;;;1.42;;
28427;SDS011;15662;49.128;8.520;2023-04-24T04:18:55;1.38;;;1.27;;
28427;SDS011;15662;49.128;8.520;2023-04-24T04:21:24;1.17;;;1.08;;
28427;SDS011;15662;49.128;8.520;2023-04-24T04:24:05;3.03;;;1.02;;
28427;SDS011;15662;49.128;8.520;2023-04-24T04:26:38;1.27;;;1.15;;
28427;SDS011;15662;49.128;8.520;2023-04-24T04:29:09;1.02;;;1.00;;
28427;SDS011;15662;49.128;8.520;2023-04-24T04:31:42;4.30;;;1.40;;
28427;SDS011;15662;49.128;8.520;2023-04-24T04:34:13;1.58;;;1.30;;
28427;SDS011;15662;49.128;8.520;2023-04-24T04:36:42;2.17;;;1.05;;
28427;SDS011;15662;49.128;8.520;2023-04-24T04:39:36;1.40;;;1.30;;
28427;SDS011;15662;49.128;8.520;2023-04-24T04:42:13;5.70;;;1.10;;
28427;SDS011;15662;49.128;8.520;2023-04-24T04:44:43;0.93;;;0.93;;
28427;SDS011;15662;49.128;8.520;2023-04-24T04:47:20;1.48;;;1.00;;
28427;SDS011;15662;49.128;8.520;2023-04-24T04:49:53;1.75;;;1.20;;
28427;SDS011;15662;49.128;8.520;2023-04-24T04:52:26;1.20;;;1.10;;
28427;SDS011;15662;49.128;8.520;2023-04-24T04:55:08;1.83;;;1.42;;
28427;SDS011;15662;49.128;8.520;2023-04-24T04:58:08;1.42;;;1.30;;
28427;SDS011;15662;49.128;8.520;2023-04-24T05:00:38;2.47;;;1.30;;
28427;SDS011;15662;49.128;8.520;2023-04-24T05:03:16;1.55;;;1.10;;
28427;SDS011;15662;49.128;8.520;2023-04-24T05:05:55;1.75;;;1.20;;
28427;SDS011;15662;49.128;8.520;2023-04-24T05:08:27;1.20;;;1.10;;
28427;SDS011;15662;49.128;8.520;2023-04-24T05:10:55;1.50;;;1.40;;
28427;SDS011;15662;49.128;8.520;2023-04-24T05:13:26;1.60;;;1.50;;
28427;SDS011;15662;49.128;8.520;2023-04-24T05:16:11;1.42;;;1.08;;
28427;SDS011;15662;49.128;8.520;2023-04-24T05:21:15;2.60;;;1.00;;
28427;SDS011;15662;49.128;8.520;2023-04-24T05:23:47;2.88;;;2.00;;
28427;SDS011;15662;49.128;8.520;2023-04-24T05:26:27;2.03;;;1.60;;
28427;SDS011;15662;49.128;8.520;2023-04-24T05:28:58;1.70;;;1.38;;
28427;SDS011;15662;49.128;8.520;2023-04-24T05:31:28;2.10;;;1.90;;
28427;SDS011;15662;49.128;8.520;2023-04-24T05:33:59;1.50;;;1.40;;
28427;SDS011;15662;49.128;8.520;2023-04-24T05:36:29;1.65;;;1.55;;
28427;SDS011;15662;49.128;8.520;2023-04-24T05:39:02;1.90;;;1.80;;
28427;SDS011;15662;49.128;8.520;2023-04-24T05:41:34;3.13;;;1.60;;
28427;SDS011;15662;49.128;8.520;2023-04-24T05:44:03;1.52;;;1.42;;
28427;SDS011;15662;49.128;8.520;2023-04-24T05:46:31;2.10;;;1.98;;
28427;SDS011;15662;49.128;8.520;2023-04-24T05:49:02;2.65;;;2.20;;
28427;SDS011;15662;49.128;8.520;2023-04-24T05:51:34;3.30;;;2.95;;
28427;SDS011;15662;49.128;8.520;2023-04-24T05:54:04;4.60;;;2.67;;
28427;SDS011;15662;49.128;8.520;2023-04-24T05:56:33;2.75;;;1.90;;
28427;SDS011;15662;49.128;8.520;2023-04-24T05:59:05;2.00;;;1.85;;
28427;SDS011;15662;49.128;8.520;2023-04-24T06:01:35;1.67;;;1.55;;
28427;SDS011;15662;49.128;8.520;2023-04-24T06:04:13;2.25;;;1.75;;
28427;SDS011;15662;49.128;8.520;2023-04-24T06:06:44;1.83;;;1.70;;
28427;SDS011;15662;49.128;8.520;2023-04-24T06:09:12;1.58;;;1.48;;
28427;SDS011;15662;49.128;8.520;2023-04-24T06:11:50;3.53;;;1.50;;
28427;SDS011;15662;49.128;8.520;2023-04-24T06:14:30;3.25;;;1.75;;
28427;SDS011;15662;49.128;8.520;2023-04-24T06:17:18;1.25;;;1.15;;
28427;SDS011;15662;49.128;8.520;2023-04-24T06:19:46;3.75;;;1.23;;
28427;SDS011;15662;49.128;8.520;2023-04-24T06:22:15;1.50;;;1.40;;
28427;SDS011;15662;49.128;8.520;2023-04-24T06:24:44;1.25;;;1.15;;
28427;SDS011;15662;49.128;8.520;2023-04-24T06:27:17;1.38;;;1.08;;
28427;SDS011;15662;49.128;8.520;2023-04-24T06:29:45;1.30;;;1.20;;
28427;SDS011;15662;49.128;8.520;2023-04-24T06:32:21;1.25;;;1.05;;
28427;SDS011;15662;49.128;8.520;2023-04-24T06:34:53;1.58;;;1.13;;
28427;SDS011;15662;49.128;8.520;2023-04-24T06:37:28;1.02;;;1.02;;
28427;SDS011;15662;49.128;8.520;2023-04-24T06:39:56;1.23;;;1.13;;
28427;SDS011;15662;49.128;8.520;2023-04-24T06:42:30;2.30;;;0.95;;
28427;SDS011;15662;49.128;8.520;2023-04-24T06:44:58;2.35;;;1.23;;
28427;SDS011;15662;49.128;8.520;2023-04-24T06:47:28;1.40;;;1.30;;
28427;SDS011;15662;49.128;8.520;2023-04-24T06:50:07;1.50;;;1.27;;
28427;SDS011;15662;49.128;8.520;2023-04-24T06:52:42;1.30;;;1.20;;
28427;SDS011;15662;49.128;8.520;2023-04-24T06:55:11;1.27;;;1.20;;
28427;SDS011;15662;49.128;8.520;2023-04-24T07:00:12;1.92;;;1.20;;
28427;SDS011;15662;49.128;8.520;2023-04-24T07:02:40;1.30;;;1.20;;
28427;SDS011;15662;49.128;8.520;2023-04-24T07:05:09;1.25;;;1.15;;
28427;SDS011;15662;49.128;8.520;2023-04-24T07:07:44;1.50;;;1.23;;
28427;SDS011;15662;49.128;8.520;2023-04-24T07:10:15;1.35;;;1.02;;
28427;SDS011;15662;49.128;8.520;2023-04-24T07:12:44;2.22;;;1.30;;
28427;SDS011;15662;49.128;8.520;2023-04-24T07:15:12;2.00;;;0.98;;
28427;SDS011;15662;49.128;8.520;2023-04-24T07:17:45;2.25;;;1.10;;
28427;SDS011;15662;49.128;8.520;2023-04-24T07:20:13;1.55;;;1.15;;
28427;SDS011;15662;49.128;8.520;2023-04-24T07:22:43;1.15;;;1.05;;
28427;SDS011;15662;49.128;8.520;2023-04-24T07:25:18;1.00;;;1.00;;
28427;SDS011;15662;49.128;8.520;2023-04-24T07:27:48;1.55;;;1.20;;
28427;SDS011;15662;49.128;8.520;2023-04-24T07:30:18;1.33;;;1.20;;
28427;SDS011;15662;49.128;8.520;2023-04-24T07:32:46;1.40;;;1.10;;
28427;SDS011;15662;49.128;8.520;2023-04-24T07:35:16;1.23;;;1.13;;
28427;SDS011;15662;49.128;8.520;2023-04-24T07:37:46;2.15;;;1.05;;
28427;SDS011;15662;49.128;8.520;2023-04-24T07:40:17;1.42;;;1.20;;
28427;SDS011;15662;49.128;8.520;2023-04-24T07:42:48;1.05;;;1.00;;
28427;SDS011;15662;49.128;8.520;2023-04-24T07:45:16;1.02;;;0.80;;
28427;SDS011;15662;49.128;8.520;2023-04-24T07:47:45;1.10;;;1.00;;
28427;SDS011;15662;49.128;8.520;2023-04-24T07:50:14;2.25;;;1.10;;
28427;SDS011;15662;49.128;8.520;2023-04-24T07:52:43;1.67;;;0.90;;
28427;SDS011;15662;49.128;8.520;2023-04-24T07:55:11;0.80;;;0.73;;
28427;SDS011;15662;49.128;8.520;2023-04-24T07:57:40;0.80;;;0.80;;
28427;SDS011;15662;49.128;8.520;2023-04-24T08:00:11;0.80;;;0.80;;
28427;SDS011;15662;49.128;8.520;2023-04-24T08:02:43;2.28;;;0.77;;
28427;SDS011;15662;49.128;8.520;2023-04-24T08:05:13;0.80;;;0.70;;
28427;SDS011;15662;49.128;8.520;2023-04-24T08:07:41;1.10;;;0.60;;
28427;SDS011;15662;49.128;8.520;2023-04-24T08:10:10;1.38;;;0.70;;
28427;SDS011;15662;49.128;8.520;2023-04-24T08:12:39;1.75;;;0.60;;
28427;SDS011;15662;49.128;8.520;2023-04-24T08:15:08;0.88;;;0.80;;
28427;SDS011;15662;49.128;8.520;2023-04-24T08:17:39;0.95;;;0.77;;
28427;SDS011;15662;49.128;8.520;2023-04-24T08:20:08;3.25;;;0.70;;
28427;SDS011;15662;49.128;8.520;2023-04-24T08:22:44;1.70;;;0.80;;
28427;SDS011;15662;49.128;8.520;2023-04-24T08:25:22;1.13;;;0.88;;
28427;SDS011;15662;49.128;8.520;2023-04-24T08:27:54;2.20;;;0.90;;
28427;SDS011;15662;49.128;8.520;2023-04-24T08:30:22;0.70;;;0.70;;
28427;SDS011;15662;49.128;8.520;2023-04-24T08:32:51;0.88;;;0.70;;
28427;SDS011;15662;49.128;8.520;2023-04-24T08:35:22;1.38;;;0.73;;
28427;SDS011;15662;49.128;8.520;2023-04-24T08:37:54;1.15;;;0.80;;
28427;SDS011;15662;49.128;8.520;2023-04-24T08:40:28;0.70;;;0.70;;
28427;SDS011;15662;49.128;8.520;2023-04-24T08:43:03;0.90;;;0.68;;
28427;SDS011;15662;49.128;8.520;2023-04-24T08:45:33;1.92;;;0.70;;
28427;SDS011;15662;49.128;8.520;2023-04-24T08:48:02;0.73;;;0.65;;
28427;SDS011;15662;49.128;8.520;2023-04-24T08:50:37;1.33;;;0.70;;
28427;SDS011;15662;49.128;8.520;2023-04-24T08:53:08;1.08;;;0.80;;
28427;SDS011;15662;49.128;8.520;2023-04-24T08:55:39;1.20;;;0.73;;
28427;SDS011;15662;49.128;8.520;2023-04-24T08:58:12;2.00;;;0.73;;
28427;SDS011;15662;49.128;8.520;2023-04-24T09:00:41;2.10;;;0.68;;
28427;SDS011;15662;49.128;8.520;2023-04-24T09:03:16;0.68;;;0.65;;
28427;SDS011;15662;49.128;8.520;2023-04-24T09:05:47;0.70;;;0.70;;
28427;SDS011;15662;49.128;8.520;2023-04-24T09:08:19;2.47;;;1.00;;
28427;SDS011;15662;49.128;8.520;2023-04-24T09:10:52;0.65;;;0.60;;
28427;SDS011;15662;49.128;8.520;2023-04-24T09:13:21;2.55;;;1.00;;
28427;SDS011;15662;49.128;8.520;2023-04-24T09:15:54;0.80;;;0.80;;
28427;SDS011;15662;49.128;8.520;2023-04-24T09:18:26;1.75;;;0.95;;
28427;SDS011;15662;49.128;8.520;2023-04-24T09:21:03;2.22;;;1.00;;
28427;SDS011;15662;49.128;8.520;2023-04-24T09:23:37;0.85;;;0.80;;
28427;SDS011;15662;49.128;8.520;2023-04-24T09:26:12;1.60;;;0.88;;
28427;SDS011;15662;49.128;8.520;2023-04-24T09:28:43;1.77;;;0.93;;
28427;SDS011;15662;49.128;8.520;2023-04-24T09:31:17;1.27;;;1.17;;
28427;SDS011;15662;49.128;8.520;2023-04-24T09:33:56;2.65;;;1.05;;
28427;SDS011;15662;49.128;8.520;2023-04-24T09:36:41;3.35;;;1.20;;
28427;SDS011;15662;49.128;8.520;2023-04-24T09:39:13;1.00;;;1.00;;
28427;SDS011;15662;49.128;8.520;2023-04-24T09:41:50;1.73;;;1.30;;
28427;SDS011;15662;49.128;8.520;2023-04-24T09:44:27;1.60;;;1.20;;
28427;SDS011;15662;49.128;8.520;2023-04-24T09:46:57;1.40;;;1.30;;
28427;SDS011;15662;49.128;8.520;2023-04-24T09:49:29;1.42;;;1.30;;
28427;SDS011;15662;49.128;8.520;2023-04-24T09:52:05;1.58;;;1.27;;
28427;SDS011;15662;49.128;8.520;2023-04-24T09:54:36;2.10;;;1.60;;
28427;SDS011;15662;49.128;8.520;2023-04-24T09:57:09;1.75;;;1.50;;
28427;SDS011;15662;49.128;8.520;2023-04-24T10:02:37;1.50;;;1.40;;
28427;SDS011;15662;49.128;8.520;2023-04-24T10:05:14;1.92;;;1.60;;
28427;SDS011;15662;49.128;8.520;2023-04-24T10:07:43;6.20;;;1.50;;
28427;SDS011;15662;49.128;8.520;2023-04-24T10:10:17;1.80;;;1.70;;
28427;SDS011;15662;49.128;8.520;2023-04-24T10:12:47;1.83;;;1.67;;
28427;SDS011;15662;49.128;8.520;2023-04-24T10:15:21;1.52;;;1.40;;
28427;SDS011;15662;49.128;8.520;2023-04-24T10:17:50;1.70;;;1.60;;
28427;SDS011;15662;49.128;8.520;2023-04-24T10:20:23;1.92;;;1.70;;
28427;SDS011;15662;49.128;8.520;2023-04-24T10:22:55;1.70;;;1.60;;
28427;SDS011;15662;49.128;8.520;2023-04-24T10:25:31;1.80;;;1.60;;
28427;SDS011;15662;49.128;8.520;2023-04-24T10:28:03;2.05;;;1.40;;
28427;SDS011;15662;49.128;8.520;2023-04-24T10:30:37;1.70;;;1.45;;
28427;SDS011;15662;49.128;8.520;2023-04-24T10:33:12;1.60;;;1.50;;
28427;SDS011;15662;49.128;8.520;2023-04-24T10:35:46;2.20;;;1.80;;
28427;SDS011;15662;49.128;8.520;2023-04-24T10:38:21;1.70;;;1.60;;
28427;SDS011;15662;49.128;8.520;2023-04-24T10:41:11;1.75;;;1.65;;
28427;SDS011;15662;49.128;8.520;2023-04-24T10:43:47;1.90;;;1.80;;
28427;SDS011;15662;49.128;8.520;2023-04-24T10:46:31;2.47;;;1.50;;
28427;SDS011;15662;49.128;8.520;2023-04-24T10:49:05;1.98;;;1.52;;
28427;SDS011;15662;49.128;8.520;2023-04-24T10:51:48;2.45;;;1.90;;
28427;SDS011;15662;49.128;8.520;2023-04-24T10:56:52;1.60;;;1.50;;
28427;SDS011;15662;49.128;8.520;2023-04-24T10:59:40;2.85;;;1.80;;
28427;SDS011;15662;49.128;8.520;2023-04-24T11:02:10;2.05;;;1.83;;
28427;SDS011;15662;49.128;8.520;2023-04-24T11:04:39;1.92;;;1.48;;
28427;SDS011;15662;49.128;8.520;2023-04-24T11:07:11;2.80;;;1.80;;
28427;SDS011;15662;49.128;8.520;2023-04-24T11:09:43;1.70;;;1.60;;
28427;SDS011;15662;49.128;8.520;2023-04-24T11:12:11;2.35;;;2.15;;
28427;SDS011;15662;49.128;8.520;2023-04-24T11:17:33;2.97;;;1.80;;
28427;SDS011;15662;49.128;8.520;2023-04-24T11:20:16;2.17;;;1.88;;
28427;SDS011;15662;49.128;8.520;2023-04-24T11:22:58;2.10;;;1.90;;
28427;SDS011;15662;49.128;8.520;2023-04-24T11:25:33;2.63;;;1.98;;
28427;SDS011;15662;49.128;8.520;2023-04-24T11:28:04;1.80;;;1.70;;
28427;SDS011;15662;49.128;8.520;2023-04-24T11:30:34;1.93;;;1.70;;
28427;SDS011;15662;49.128;8.520;2023-04-24T11:33:13;1.92;;;1.80;;
28427;SDS011;15662;49.128;8.520;2023-04-24T11:35:48;2.00;;;1.70;;
28427;SDS011;15662;49.128;8.520;2023-04-24T11:38:18;1.88;;;1.77;;
28427;SDS011;15662;49.128;8.520;2023-04-24T11:40:51;1.88;;;1.77;;
28427;SDS011;15662;49.128;8.520;2023-04-24T11:43:21;2.03;;;1.60;;
28427;SDS011;15662;49.128;8.520;2023-04-24T11:45:50;2.78;;;2.00;;
28427;SDS011;15662;49.128;8.520;2023-04-24T11:48:18;1.60;;;1.50;;
28427;SDS011;15662;49.128;8.520;2023-04-24T11:50:50;1.70;;;1.60;;
28427;SDS011;15662;49.128;8.520;2023-04-24T11:53:20;1.65;;;1.55;;
28427;SDS011;15662;49.128;8.520;2023-04-24T11:55:49;1.70;;;1.60;;
28427;SDS011;15662;49.128;8.520;2023-04-24T11:58:20;1.67;;;1.58;;
28427;SDS011;15662;49.128;8.520;2023-04-24T12:03:23;2.13;;;1.90;;
28427;SDS011;15662;49.128;8.520;2023-04-24T12:05:53;3.00;;;1.90;;
28427;SDS011;15662;49.128;8.520;2023-04-24T12:08:34;2.00;;;1.90;;
28427;SDS011;15662;49.128;8.520;2023-04-24T12:11:05;1.67;;;1.55;;
28427;SDS011;15662;49.128;8.520;2023-04-24T12:13:34;1.60;;;1.50;;
28427;SDS011;15662;49.128;8.520;2023-04-24T12:16:08;1.70;;;1.60;;
28427;SDS011;15662;49.128;8.520;2023-04-24T12:18:41;1.63;;;1.52;;
28427;SDS011;15662;49.128;8.520;2023-04-24T12:21:19;1.70;;;1.60;;
28427;SDS011;15662;49.128;8.520;2023-04-24T12:23:56;2.17;;;1.55;;
28427;SDS011;15662;49.128;8.520;2023-04-24T12:26:24;1.63;;;1.52;;
28427;SDS011;15662;49.128;8.520;2023-04-24T12:28:52;2.58;;;1.50;;
28427;SDS011;15662;49.128;8.520;2023-04-24T12:31:21;2.13;;;1.77;;
28427;SDS011;15662;49.128;8.520;2023-04-24T12:33:51;1.60;;;1.50;;
28427;SDS011;15662;49.128;8.520;2023-04-24T12:36:21;1.77;;;1.52;;
28427;SDS011;15662;49.128;8.520;2023-04-24T12:38:54;1.80;;;1.70;;
28427;SDS011;15662;49.128;8.520;2023-04-24T12:41:22;2.05;;;1.52;;
28427;SDS011;15662;49.128;8.520;2023-04-24T12:43:52;1.92;;;1.50;;
28427;SDS011;15662;49.128;8.520;2023-04-24T12:46:20;2.13;;;1.75;;
28427;SDS011;15662;49.128;8.520;2023-04-24T12:48:50;3.60;;;1.70;;
28427;SDS011;15662;49.128;8.520;2023-04-24T12:51:18;2.05;;;1.83;;
28427;SDS011;15662;49.128;8.520;2023-04-24T12:53:48;1.77;;;1.67;;
28427;SDS011;15662;49.128;8.520;2023-04-24T12:56:17;1.83;;;1.73;;
28427;SDS011;15662;49.128;8.520;2023-04-24T12:58:46;3.00;;;1.77;;
28427;SDS011;15662;49.128;8.520;2023-04-24T13:01:14;2.03;;;1.80;;
28427;SDS011;15662;49.128;8.520;2023-04-24T13:03:44;1.80;;;1.40;;
28427;SDS011;15662;49.128;8.520;2023-04-24T13:06:13;1.83;;;1.60;;
28427;SDS011;15662;49.128;8.520;2023-04-24T13:08:41;2.03;;;1.90;;
28427;SDS011;15662;49.128;8.520;2023-04-24T13:11:09;2.90;;;1.70;;
28427;SDS011;15662;49.128;8.520;2023-04-24T13:13:37;2.58;;;1.73;;
28427;SDS011;15662;49.128;8.520;2023-04-24T13:16:05;3.17;;;1.90;;
28427;SDS011;15662;49.128;8.520;2023-04-24T13:18:32;1.90;;;1.80;;
28427;SDS011;15662;49.128;8.520;2023-04-24T13:21:00;1.55;;;1.45;;
28427;SDS011;15662;49.128;8.520;2023-04-24T13:23:28;1.77;;;1.67;;
28427;SDS011;15662;49.128;8.520;2023-04-24T13:25:56;1.50;;;1.40;;
28427;SDS011;15662;49.128;8.520;2023-04-24T13:28:25;4.25;;;1.70;;
28427;SDS011;15662;49.128;8.520;2023-04-24T13:30:53;1.88;;;1.42;;
28427;SDS011;15662;49.128;8.520;2023-04-24T13:33:23;1.60;;;1.45;;
28427;SDS011;15662;49.128;8.520;2023-04-24T13:35:51;1.95;;;1.52;;
28427;SDS011;15662;49.128;8.520;2023-04-24T13:38:20;1.92;;;1.30;;
28427;SDS011;15662;49.128;8.520;2023-04-24T13:40:49;1.40;;;1.30;;
28427;SDS011;15662;49.128;8.520;2023-04-24T13:43:18;1.20;;;1.10;;
28427;SDS011;15662;49.128;8.520;2023-04-24T13:45:45;1.92;;;1.20;;
28427;SDS011;15662;49.128;8.520;2023-04-24T13:48:13;1.73;;;1.23;;
28427;SDS011;15662;49.128;8.520;2023-04-24T13:50:50;1.83;;;1.40;;
28427;SDS011;15662;49.128;8.520;2023-04-24T13:53:19;1.30;;;1.20;;
28427;SDS011;15662;49.128;8.520;2023-04-24T13:55:49;1.90;;;1.80;;
28427;SDS011;15662;49.128;8.520;2023-04-24T13:58:17;1.55;;;1.40;;
28427;SDS011;15662;49.128;8.520;2023-04-24T14:00:45;1.95;;;1.50;;
28427;SDS011;15662;49.128;8.520;2023-04-24T14:03:20;1.77;;;1.67;;
28427;SDS011;15662;49.128;8.520;2023-04-24T14:05:49;3.20;;;1.50;;
28427;SDS011;15662;49.128;8.520;2023-04-24T14:08:17;2.47;;;1.55;;
28427;SDS011;15662;49.128;8.520;2023-04-24T14:10:45;1.60;;;1.50;;
28427;SDS011;15662;49.128;8.520;2023-04-24T14:13:12;1.80;;;1.70;;
28427;SDS011;15662;49.128;8.520;2023-04-24T14:15:41;1.88;;;1.60;;
28427;SDS011;15662;49.128;8.520;2023-04-24T14:18:09;2.15;;;1.48;;
28427;SDS011;15662;49.128;8.520;2023-04-24T14:20:37;1.95;;;1.75;;
28427;SDS011;15662;49.128;8.520;2023-04-24T14:23:04;1.92;;;1.63;;
28427;SDS011;15662;49.128;8.520;2023-04-24T14:25:38;1.60;;;1.50;;
28427;SDS011;15662;49.128;8.520;2023-04-24T14:28:06;2.70;;;1.70;;
28427;SDS011;15662;49.128;8.520;2023-04-24T14:30:34;1.70;;;1.60;;
28427;SDS011;15662;49.128;8.520;2023-04-24T14:33:04;1.80;;;1.70;;
28427;SDS011;15662;49.128;8.520;2023-04-24T14:35:32;1.65;;;1.55;;
28427;SDS011;15662;49.128;8.520;2023-04-24T14:38:02;1.85;;;1.75;;
28427;SDS011;15662;49.128;8.520;2023-04-24T14:40:30;1.77;;;1.58;;
28427;SDS011;15662;49.128;8.520;2023-04-24T14:43:19;1.70;;;1.60;;
28427;SDS011;15662;49.128;8.520;2023-04-24T14:45:48;1.95;;;1.85;;
28427;SDS011;15662;49.128;8.520;2023-04-24T14:48:18;2.50;;;1.98;;
28427;SDS011;15662;49.128;8.520;2023-04-24T14:50:47;2.85;;;1.90;;
28427;SDS011;15662;49.128;8.520;2023-04-24T14:53:17;1.98;;;1.77;;
28427;SDS011;15662;49.128;8.520;2023-04-24T14:55:48;1.80;;;1.70;;
28427;SDS011;15662;49.128;8.520;2023-04-24T14:58:16;2.88;;;1.70;;
28427;SDS011;15662;49.128;8.520;2023-04-24T15:00:46;2.05;;;1.88;;
28427;SDS011;15662;49.128;8.520;2023-04-24T15:03:16;1.57;;;1.47;;
28427;SDS011;15662;49.128;8.520;2023-04-24T15:05:46;2.00;;;1.83;;
28427;SDS011;15662;49.128;8.520;2023-04-24T15:08:14;1.80;;;1.70;;
28427;SDS011;15662;49.128;8.520;2023-04-24T15:10:42;1.90;;;1.80;;
28427;SDS011;15662;49.128;8.520;2023-04-24T15:13:11;1.90;;;1.80;;
28427;SDS011;15662;49.128;8.520;2023-04-24T15:15:43;1.60;;;1.50;;
28427;SDS011;15662;49.128;8.520;2023-04-24T15:18:13;1.90;;;1.75;;
28427;SDS011;15662;49.128;8.520;2023-04-24T15:20:41;2.20;;;1.60;;
28427;SDS011;15662;49.128;8.520;2023-04-24T15:23:10;1.50;;;1.50;;
28427;SDS011;15662;49.128;8.520;2023-04-24T15:25:39;1.95;;;1.65;;
28427;SDS011;15662;49.128;8.520;2023-04-24T15:28:07;1.90;;;1.60;;